Estación de El Refugio

Ultimos registro cada 15 minutos 87
Estación Fecha / Hora Temperatura Humedad Lluvia Velocidad Dirección Radiación Presion
87 El Refugio 02-09-2026 21:45 14,3 78 0 0 358 0 1041,2
86 El Refugio 02-09-2026 21:30 14,6 77 0 0 358 0 1041,2
85 El Refugio 02-09-2026 21:15 15,3 74 0 0 358 0 1040,7
84 El Refugio 02-09-2026 21:00 15,3 74 0 0 358 0 1040,7
83 El Refugio 02-09-2026 20:45 15,6 72 0 0 358 0 1040,6
82 El Refugio 02-09-2026 20:30 15,9 71 0 0 358 0 1040,5
81 El Refugio 02-09-2026 20:15 16,8 66 0 0 358 0 1040
80 El Refugio 02-09-2026 20:00 16,8 66 0 0 358 0 1040
79 El Refugio 02-09-2026 19:45 17,1 64 0 0 358 0 1039,8
78 El Refugio 02-09-2026 19:30 17,5 63 0 0 358 0 1039,5
77 El Refugio 02-09-2026 19:15 18,7 59 0 0 351 0 1039,1
76 El Refugio 02-09-2026 19:00 18,7 59 0 0 351 0 1039,1
75 El Refugio 02-09-2026 18:45 19,3 51 0 0 323 0 1038,9
74 El Refugio 02-09-2026 18:30 19,9 50 0 0 323 0 1038,9
73 El Refugio 02-09-2026 18:15 21,6 41 0 0 355 30 1037,9
72 El Refugio 02-09-2026 18:00 21,6 41 0 0 355 30 1037,9
71 El Refugio 02-09-2026 17:45 22,4 33 0 0 333 91 1037,8
70 El Refugio 02-09-2026 17:30 22,8 33 0 0 313 185 1037,6
69 El Refugio 02-09-2026 17:15 23,2 33 0 1,8 292 338 1037,4
68 El Refugio 02-09-2026 17:00 23,2 33 0 1,8 292 338 1037,4
67 El Refugio 02-09-2026 16:45 22,5 29 0 0 298 186 1037,6
66 El Refugio 02-09-2026 16:30 22,3 32 0 0 289 199 1037,5
65 El Refugio 02-09-2026 16:15 22,9 33 0 0 311 186 1037,2
64 El Refugio 02-09-2026 16:00 22,9 33 0 0 311 186 1037,2
63 El Refugio 02-09-2026 15:45 23,8 26 0 1,3 331 362 1037
62 El Refugio 02-09-2026 15:30 23,7 24 0 2,7 241 513 1036,9
61 El Refugio 02-09-2026 15:15 23,8 31 0 0,4 287 512 1036,9
60 El Refugio 02-09-2026 15:00 23,8 31 0 0,4 287 512 1036,9
59 El Refugio 02-09-2026 14:45 24,1 22 0 0,4 313 599 1037
58 El Refugio 02-09-2026 14:30 23,6 29 0 0,4 316 673 1036,9
57 El Refugio 02-09-2026 14:15 22,9 54 0 0 265 701 1037,1
56 El Refugio 02-09-2026 14:00 22,9 54 0 0 265 701 1037,1
55 El Refugio 02-09-2026 13:45 22,4 53 0 0 286 703 1037,3
54 El Refugio 02-09-2026 13:30 22,2 54 0 0 238 722 1037,7
53 El Refugio 02-09-2026 13:15 21,7 60 0 0 296 733 1037,8
52 El Refugio 02-09-2026 13:00 21,7 60 0 0 296 733 1037,8
51 El Refugio 02-09-2026 12:45 21,1 62 0 0 226 742 1038
50 El Refugio 02-09-2026 12:30 20,3 64 0 0 120 689 1038,4
49 El Refugio 02-09-2026 12:15 19,8 66 0 0 121 387 1038,2
48 El Refugio 02-09-2026 12:00 19,8 66 0 0 121 387 1038,2
47 El Refugio 02-09-2026 11:45 19,6 68 0 0 65 475 1038
46 El Refugio 02-09-2026 11:30 19,3 66 0 0 71 587 1038,1
45 El Refugio 02-09-2026 11:15 18,9 66 0 0 72 323 1038,1
44 El Refugio 02-09-2026 11:00 18,9 66 0 0 72 323 1038,1
43 El Refugio 02-09-2026 10:45 18,8 67 0 0 73 719 1038,2
42 El Refugio 02-09-2026 10:30 18,1 69 0 0 75 596 1038,3
41 El Refugio 02-09-2026 10:15 16,8 74 0 0 86 517 1038,3
40 El Refugio 02-09-2026 10:00 16,8 74 0 0 86 517 1038,3
39 El Refugio 02-09-2026 09:45 16,1 78 0 0 86 494 1038,4
38 El Refugio 02-09-2026 09:30 14,9 82 0 0 190 503 1038,5
37 El Refugio 02-09-2026 09:15 13,3 87 0 0 190 139 1038,8
36 El Refugio 02-09-2026 09:00 13,3 87 0 0 190 139 1038,8
35 El Refugio 02-09-2026 08:45 12,9 90 0 0 190 107 1038,8
34 El Refugio 02-09-2026 08:30 12,6 92 0 0 190 93 1039
33 El Refugio 02-09-2026 08:15 11,7 92 0 0 190 53 1038,4
32 El Refugio 02-09-2026 08:00 11,7 92 0 0 190 53 1038,4
31 El Refugio 02-09-2026 07:45 11,5 92 0 0 190 33 1038
30 El Refugio 02-09-2026 07:30 11,3 92 0 0 190 18 1037,7
29 El Refugio 02-09-2026 07:15 11,2 92 0 0 190 0 1037
28 El Refugio 02-09-2026 07:00 11,2 92 0 0 190 0 1037
27 El Refugio 02-09-2026 06:45 11,1 91 0 0 190 0 1037
26 El Refugio 02-09-2026 06:30 11,2 91 0 0 190 0 1037
25 El Refugio 02-09-2026 06:15 10,9 91 0 0 190 0 1037,3
24 El Refugio 02-09-2026 06:00 10,9 91 0 0 190 0 1037,3
23 El Refugio 02-09-2026 05:45 10,9 90 0 0 190 0 1037,2
22 El Refugio 02-09-2026 05:30 10,8 90 0 0 190 0 1037,4
21 El Refugio 02-09-2026 05:15 11,2 88 0 0 190 0 1037,1
20 El Refugio 02-09-2026 05:00 11,2 88 0 0 190 0 1037,1
19 El Refugio 02-09-2026 04:45 11,6 88 0 0 190 0 1036,9
18 El Refugio 02-09-2026 04:30 12 87 0 0 190 0 1036,9
17 El Refugio 02-09-2026 04:15 12,8 86 0 0 190 0 1037,2
16 El Refugio 02-09-2026 04:00 12,8 86 0 0 190 0 1037,2
15 El Refugio 02-09-2026 03:45 12,9 86 0 0 190 0 1037,4
14 El Refugio 02-09-2026 03:30 13 85 0 0 190 0 1037,4
13 El Refugio 02-09-2026 03:00 13,2 84 0 0 190 0 1037,7
12 El Refugio 02-09-2026 02:45 13,4 84 0 0 190 0 1037,6
11 El Refugio 02-09-2026 02:30 13,7 83 0 0 190 0 1037,8
10 El Refugio 02-09-2026 02:15 14 82 0 0 190 0 1038
9 El Refugio 02-09-2026 02:00 14,3 80 0 0 190 0 1038,1
8 El Refugio 02-09-2026 01:45 14,5 78 0 0 190 0 1038,2
7 El Refugio 02-09-2026 01:30 14,4 79 0 0 88 0 1038,3
6 El Refugio 02-09-2026 01:15 14,2 80 0 0 88 0 1038,1
5 El Refugio 02-09-2026 01:00 14,3 82 0 0 88 0 1038,1
4 El Refugio 02-09-2026 00:45 14,2 82 0 0 88 0 1038,4
3 El Refugio 02-09-2026 00:30 14 83 0 0 88 0 1038,5
2 El Refugio 02-09-2026 00:15 14,1 82 0 0 250 0 1038,5
1 El Refugio 02-09-2026 00:00 14,2 82 0 0 250 0 1038,1